sensor_id;sensor_type;location;lat;lon;timestamp;pressure;altitude;pressure_sealevel;temperature;humidity
11971;BME280;6045;42.682;23.294;2022-12-18T00:00:39;95418.72;;;7.28;92.70
11971;BME280;6045;42.682;23.294;2022-12-18T00:03:07;95411.94;;;7.05;92.61
11971;BME280;6045;42.682;23.294;2022-12-18T00:05:34;95412.50;;;7.00;93.31
11971;BME280;6045;42.682;23.294;2022-12-18T00:08:00;95412.63;;;6.92;93.96
11971;BME280;6045;42.682;23.294;2022-12-18T00:10:27;95414.09;;;6.95;94.40
11971;BME280;6045;42.682;23.294;2022-12-18T00:12:56;95411.50;;;7.01;94.46
11971;BME280;6045;42.682;23.294;2022-12-18T00:15:22;95423.09;;;7.15;94.40
11971;BME280;6045;42.682;23.294;2022-12-18T00:17:49;95416.50;;;7.11;93.39
11971;BME280;6045;42.682;23.294;2022-12-18T00:20:16;95423.34;;;6.99;93.24
11971;BME280;6045;42.682;23.294;2022-12-18T00:22:47;95428.59;;;6.92;93.13
11971;BME280;6045;42.682;23.294;2022-12-18T00:25:13;95431.81;;;6.87;93.32
11971;BME280;6045;42.682;23.294;2022-12-18T00:27:40;95440.00;;;6.93;93.40
11971;BME280;6045;42.682;23.294;2022-12-18T00:30:10;95436.91;;;6.89;93.67
11971;BME280;6045;42.682;23.294;2022-12-18T00:32:37;95448.25;;;6.98;93.29
11971;BME280;6045;42.682;23.294;2022-12-18T00:35:05;95452.94;;;6.96;92.90
11971;BME280;6045;42.682;23.294;2022-12-18T00:37:33;95453.16;;;6.79;92.30
11971;BME280;6045;42.682;23.294;2022-12-18T00:40:00;95448.31;;;6.68;93.30
11971;BME280;6045;42.682;23.294;2022-12-18T00:42:27;95452.16;;;6.80;94.24
11971;BME280;6045;42.682;23.294;2022-12-18T00:45:12;95447.75;;;6.87;94.13
11971;BME280;6045;42.682;23.294;2022-12-18T00:47:39;95455.06;;;6.85;94.20
11971;BME280;6045;42.682;23.294;2022-12-18T00:50:07;95455.16;;;6.92;93.13
11971;BME280;6045;42.682;23.294;2022-12-18T00:52:34;95459.47;;;6.78;92.60
11971;BME280;6045;42.682;23.294;2022-12-18T00:55:01;95461.47;;;6.76;92.64
11971;BME280;6045;42.682;23.294;2022-12-18T00:57:28;95462.50;;;6.75;92.35
11971;BME280;6045;42.682;23.294;2022-12-18T00:59:54;95472.31;;;6.75;91.79
11971;BME280;6045;42.682;23.294;2022-12-18T01:02:22;95469.94;;;6.80;92.63
11971;BME280;6045;42.682;23.294;2022-12-18T01:04:49;95465.03;;;6.83;92.73
11971;BME280;6045;42.682;23.294;2022-12-18T01:07:17;95477.22;;;6.93;92.57
11971;BME280;6045;42.682;23.294;2022-12-18T01:09:44;95478.94;;;7.00;92.52
11971;BME280;6045;42.682;23.294;2022-12-18T01:12:11;95471.81;;;7.01;91.57
11971;BME280;6045;42.682;23.294;2022-12-18T01:14:38;95483.19;;;6.95;90.39
11971;BME280;6045;42.682;23.294;2022-12-18T01:17:05;95486.94;;;6.85;90.16
11971;BME280;6045;42.682;23.294;2022-12-18T01:19:33;95487.59;;;6.73;90.76
11971;BME280;6045;42.682;23.294;2022-12-18T01:22:00;95489.53;;;6.64;90.87
11971;BME280;6045;42.682;23.294;2022-12-18T01:24:26;95496.78;;;6.70;90.75
11971;BME280;6045;42.682;23.294;2022-12-18T01:26:53;95485.66;;;7.53;100.00
11971;BME280;6045;42.682;23.294;2022-12-18T01:29:21;95489.34;;;7.16;94.79
11971;BME280;6045;42.682;23.294;2022-12-18T01:31:49;95484.25;;;7.00;91.07
11971;BME280;6045;42.682;23.294;2022-12-18T01:34:16;95494.72;;;7.02;90.21
11971;BME280;6045;42.682;23.294;2022-12-18T01:36:44;95497.75;;;6.99;90.09
11971;BME280;6045;42.682;23.294;2022-12-18T01:39:13;95502.59;;;6.95;90.14
11971;BME280;6045;42.682;23.294;2022-12-18T01:41:41;95506.56;;;6.84;89.38
11971;BME280;6045;42.682;23.294;2022-12-18T01:47:35;95517.19;;;6.99;89.57
11971;BME280;6045;42.682;23.294;2022-12-18T01:50:07;95513.22;;;6.95;89.10
11971;BME280;6045;42.682;23.294;2022-12-18T01:52:41;95510.94;;;6.92;89.66
11971;BME280;6045;42.682;23.294;2022-12-18T01:55:11;95515.16;;;6.86;89.72
11971;BME280;6045;42.682;23.294;2022-12-18T01:57:39;95505.53;;;6.85;89.48
11971;BME280;6045;42.682;23.294;2022-12-18T02:00:09;95517.47;;;6.89;89.54
11971;BME280;6045;42.682;23.294;2022-12-18T02:02:36;95504.34;;;6.88;88.83
11971;BME280;6045;42.682;23.294;2022-12-18T02:05:04;95508.09;;;6.94;88.56
11971;BME280;6045;42.682;23.294;2022-12-18T02:07:41;95512.03;;;6.98;88.18
11971;BME280;6045;42.682;23.294;2022-12-18T02:10:14;95516.44;;;6.90;87.98
11971;BME280;6045;42.682;23.294;2022-12-18T02:12:48;95514.63;;;6.76;88.40
11971;BME280;6045;42.682;23.294;2022-12-18T02:15:24;95515.44;;;6.92;88.83
11971;BME280;6045;42.682;23.294;2022-12-18T02:17:57;95518.63;;;7.02;88.65
11971;BME280;6045;42.682;23.294;2022-12-18T02:20:33;95524.59;;;7.04;88.15
11971;BME280;6045;42.682;23.294;2022-12-18T02:23:11;95530.19;;;7.09;87.79
11971;BME280;6045;42.682;23.294;2022-12-18T02:26:04;95533.47;;;7.11;87.66
11971;BME280;6045;42.682;23.294;2022-12-18T02:28:36;95534.19;;;7.05;86.93
11971;BME280;6045;42.682;23.294;2022-12-18T02:31:08;95532.09;;;7.00;87.42
11971;BME280;6045;42.682;23.294;2022-12-18T02:33:38;95539.44;;;6.83;87.04
11971;BME280;6045;42.682;23.294;2022-12-18T02:36:07;95536.06;;;6.75;87.46
11971;BME280;6045;42.682;23.294;2022-12-18T02:38:35;95532.50;;;6.82;87.61
11971;BME280;6045;42.682;23.294;2022-12-18T02:41:04;95535.97;;;6.68;87.68
11971;BME280;6045;42.682;23.294;2022-12-18T02:43:32;95534.59;;;6.72;87.86
11971;BME280;6045;42.682;23.294;2022-12-18T02:46:00;95545.22;;;6.58;87.52
11971;BME280;6045;42.682;23.294;2022-12-18T02:48:31;95547.31;;;6.48;88.17
11971;BME280;6045;42.682;23.294;2022-12-18T02:51:02;95541.72;;;6.57;88.33
11971;BME280;6045;42.682;23.294;2022-12-18T02:53:35;95544.22;;;6.59;87.99
11971;BME280;6045;42.682;23.294;2022-12-18T02:56:09;95536.41;;;6.57;88.73
11971;BME280;6045;42.682;23.294;2022-12-18T02:58:44;95534.03;;;6.62;88.31
11971;BME280;6045;42.682;23.294;2022-12-18T03:01:16;95546.41;;;6.55;87.98
11971;BME280;6045;42.682;23.294;2022-12-18T03:03:49;95543.09;;;6.53;88.30
11971;BME280;6045;42.682;23.294;2022-12-18T03:06:22;95550.25;;;6.53;87.71
11971;BME280;6045;42.682;23.294;2022-12-18T03:08:54;95555.63;;;6.30;87.71
11971;BME280;6045;42.682;23.294;2022-12-18T03:11:27;95562.84;;;6.22;87.89
11971;BME280;6045;42.682;23.294;2022-12-18T03:14:15;95548.72;;;6.06;88.68
11971;BME280;6045;42.682;23.294;2022-12-18T03:16:45;95572.88;;;5.89;89.39
11971;BME280;6045;42.682;23.294;2022-12-18T03:19:16;95561.19;;;5.75;90.14
11971;BME280;6045;42.682;23.294;2022-12-18T03:21:47;95563.44;;;5.64;90.11
11971;BME280;6045;42.682;23.294;2022-12-18T03:24:17;95567.13;;;5.54;90.14
11971;BME280;6045;42.682;23.294;2022-12-18T03:26:49;95569.69;;;5.48;91.06
11971;BME280;6045;42.682;23.294;2022-12-18T03:29:18;95574.78;;;5.49;91.21
11971;BME280;6045;42.682;23.294;2022-12-18T03:31:51;95578.63;;;5.47;91.73
11971;BME280;6045;42.682;23.294;2022-12-18T03:34:24;95580.75;;;5.51;91.77
11971;BME280;6045;42.682;23.294;2022-12-18T03:36:53;95574.56;;;5.59;92.03
11971;BME280;6045;42.682;23.294;2022-12-18T03:39:20;95578.22;;;5.58;91.82
11971;BME280;6045;42.682;23.294;2022-12-18T03:41:51;95590.91;;;5.71;91.80
11971;BME280;6045;42.682;23.294;2022-12-18T03:44:27;95591.50;;;5.81;90.95
11971;BME280;6045;42.682;23.294;2022-12-18T03:47:01;95597.16;;;5.78;89.52
11971;BME280;6045;42.682;23.294;2022-12-18T03:49:35;95609.34;;;5.64;89.43
11971;BME280;6045;42.682;23.294;2022-12-18T03:52:05;95611.16;;;5.64;90.31
11971;BME280;6045;42.682;23.294;2022-12-18T03:54:35;95613.16;;;5.62;89.78
11971;BME280;6045;42.682;23.294;2022-12-18T03:57:07;95618.47;;;5.62;89.62
11971;BME280;6045;42.682;23.294;2022-12-18T03:59:37;95616.81;;;5.61;89.51
11971;BME280;6045;42.682;23.294;2022-12-18T04:02:06;95611.81;;;5.66;90.17
11971;BME280;6045;42.682;23.294;2022-12-18T04:04:35;95614.75;;;5.71;90.13
11971;BME280;6045;42.682;23.294;2022-12-18T04:07:03;95621.88;;;5.70;89.86
11971;BME280;6045;42.682;23.294;2022-12-18T04:09:32;95619.63;;;5.59;89.57
11971;BME280;6045;42.682;23.294;2022-12-18T04:12:00;95625.50;;;5.46;89.61
11971;BME280;6045;42.682;23.294;2022-12-18T04:14:28;95631.84;;;5.37;89.60
11971;BME280;6045;42.682;23.294;2022-12-18T04:16:55;95642.50;;;5.29;89.31
11971;BME280;6045;42.682;23.294;2022-12-18T04:19:21;95635.41;;;5.22;89.03
11971;BME280;6045;42.682;23.294;2022-12-18T04:21:48;95653.44;;;5.18;89.08
11971;BME280;6045;42.682;23.294;2022-12-18T04:24:15;95646.53;;;5.09;89.80
11971;BME280;6045;42.682;23.294;2022-12-18T04:26:41;95650.03;;;5.10;90.33
11971;BME280;6045;42.682;23.294;2022-12-18T04:29:08;95660.59;;;5.18;90.83
11971;BME280;6045;42.682;23.294;2022-12-18T04:31:37;95660.94;;;5.15;90.30
11971;BME280;6045;42.682;23.294;2022-12-18T04:34:04;95660.09;;;5.22;90.08
11971;BME280;6045;42.682;23.294;2022-12-18T04:36:30;95659.38;;;5.36;89.13
11971;BME280;6045;42.682;23.294;2022-12-18T04:38:57;95668.50;;;5.34;88.43
11971;BME280;6045;42.682;23.294;2022-12-18T04:41:24;95676.09;;;5.37;87.35
11971;BME280;6045;42.682;23.294;2022-12-18T04:43:51;95683.88;;;5.30;86.91
11971;BME280;6045;42.682;23.294;2022-12-18T04:46:18;95691.19;;;5.28;86.83
11971;BME280;6045;42.682;23.294;2022-12-18T04:48:46;95687.25;;;5.16;86.34
11971;BME280;6045;42.682;23.294;2022-12-18T04:51:13;95691.22;;;5.20;86.29
11971;BME280;6045;42.682;23.294;2022-12-18T04:53:40;95692.91;;;5.13;85.62
11971;BME280;6045;42.682;23.294;2022-12-18T04:56:09;95698.88;;;5.07;85.82
11971;BME280;6045;42.682;23.294;2022-12-18T04:58:36;95704.31;;;5.14;86.00
11971;BME280;6045;42.682;23.294;2022-12-18T05:01:04;95709.13;;;5.10;85.54
11971;BME280;6045;42.682;23.294;2022-12-18T05:03:31;95707.84;;;4.98;85.31
11971;BME280;6045;42.682;23.294;2022-12-18T05:05:59;95710.00;;;4.87;85.64
11971;BME280;6045;42.682;23.294;2022-12-18T05:08:26;95716.81;;;4.89;85.70
11971;BME280;6045;42.682;23.294;2022-12-18T05:10:58;95721.75;;;4.76;85.72
11971;BME280;6045;42.682;23.294;2022-12-18T05:13:25;95718.81;;;4.71;86.24
11971;BME280;6045;42.682;23.294;2022-12-18T05:15:53;95721.94;;;4.66;86.83
11971;BME280;6045;42.682;23.294;2022-12-18T05:18:20;95726.91;;;4.69;86.68
11971;BME280;6045;42.682;23.294;2022-12-18T05:20:47;95723.59;;;4.75;87.17
11971;BME280;6045;42.682;23.294;2022-12-18T05:23:15;95730.22;;;4.71;86.63
11971;BME280;6045;42.682;23.294;2022-12-18T05:25:42;95730.06;;;4.65;86.74
11971;BME280;6045;42.682;23.294;2022-12-18T05:28:09;95740.31;;;4.68;87.10
11971;BME280;6045;42.682;23.294;2022-12-18T05:30:35;95733.53;;;4.65;86.64
11971;BME280;6045;42.682;23.294;2022-12-18T05:33:02;95734.03;;;4.61;87.26
11971;BME280;6045;42.682;23.294;2022-12-18T05:35:29;95746.28;;;4.70;87.51
11971;BME280;6045;42.682;23.294;2022-12-18T05:37:56;95751.56;;;4.78;86.86
11971;BME280;6045;42.682;23.294;2022-12-18T05:40:24;95767.63;;;4.84;86.32
11971;BME280;6045;42.682;23.294;2022-12-18T05:42:51;95762.47;;;4.83;86.16
11971;BME280;6045;42.682;23.294;2022-12-18T05:45:17;95773.41;;;4.72;85.00
11971;BME280;6045;42.682;23.294;2022-12-18T05:47:45;95771.41;;;4.58;84.66
11971;BME280;6045;42.682;23.294;2022-12-18T05:50:12;95778.03;;;4.54;85.77
11971;BME280;6045;42.682;23.294;2022-12-18T05:52:39;95771.75;;;4.55;86.09
11971;BME280;6045;42.682;23.294;2022-12-18T05:55:06;95771.09;;;4.53;86.02
11971;BME280;6045;42.682;23.294;2022-12-18T05:57:34;95781.00;;;4.51;85.01
11971;BME280;6045;42.682;23.294;2022-12-18T06:00:01;95772.09;;;4.92;95.96
11971;BME280;6045;42.682;23.294;2022-12-18T06:02:28;95775.16;;;5.44;98.85
11971;BME280;6045;42.682;23.294;2022-12-18T06:08:16;95786.53;;;6.38;98.01
11971;BME280;6045;42.682;23.294;2022-12-18T06:10:49;95776.03;;;6.90;98.57
11971;BME280;6045;42.682;23.294;2022-12-18T06:13:27;95779.47;;;7.28;94.73
11971;BME280;6045;42.682;23.294;2022-12-18T06:15:54;95774.75;;;7.38;89.43
11971;BME280;6045;42.682;23.294;2022-12-18T06:18:21;95781.44;;;7.63;83.71
11971;BME280;6045;42.682;23.294;2022-12-18T06:20:54;95788.16;;;7.59;83.38
11971;BME280;6045;42.682;23.294;2022-12-18T06:23:22;95791.94;;;7.65;83.11
11971;BME280;6045;42.682;23.294;2022-12-18T06:25:48;95797.22;;;7.50;79.56
11971;BME280;6045;42.682;23.294;2022-12-18T06:28:15;95794.56;;;7.50;79.90
11971;BME280;6045;42.682;23.294;2022-12-18T06:30:52;95800.59;;;7.29;78.47
11971;BME280;6045;42.682;23.294;2022-12-18T06:33:19;95795.09;;;6.94;78.55
11971;BME280;6045;42.682;23.294;2022-12-18T06:35:46;95795.72;;;6.96;84.66
11971;BME280;6045;42.682;23.294;2022-12-18T06:38:13;95808.13;;;7.03;79.25
11971;BME280;6045;42.682;23.294;2022-12-18T06:40:40;95816.00;;;6.97;79.33
11971;BME280;6045;42.682;23.294;2022-12-18T06:43:06;95814.81;;;7.36;84.90
11971;BME280;6045;42.682;23.294;2022-12-18T06:45:33;95820.06;;;7.59;84.92
11971;BME280;6045;42.682;23.294;2022-12-18T06:48:01;95828.50;;;7.48;77.26
11971;BME280;6045;42.682;23.294;2022-12-18T06:50:28;95831.72;;;7.06;74.59
11971;BME280;6045;42.682;23.294;2022-12-18T06:52:55;95840.44;;;6.69;75.14
11971;BME280;6045;42.682;23.294;2022-12-18T06:55:22;95848.03;;;6.11;76.21
11971;BME280;6045;42.682;23.294;2022-12-18T06:57:49;95832.88;;;5.73;77.94
11971;BME280;6045;42.682;23.294;2022-12-18T07:00:16;95832.88;;;5.73;83.06
11971;BME280;6045;42.682;23.294;2022-12-18T07:02:43;95834.59;;;6.74;100.00
11971;BME280;6045;42.682;23.294;2022-12-18T07:05:11;95835.66;;;7.10;90.57
11971;BME280;6045;42.682;23.294;2022-12-18T07:07:38;95840.38;;;7.37;81.90
11971;BME280;6045;42.682;23.294;2022-12-18T07:10:05;95845.66;;;7.45;76.95
11971;BME280;6045;42.682;23.294;2022-12-18T07:12:32;95846.16;;;7.26;75.84
11971;BME280;6045;42.682;23.294;2022-12-18T07:14:58;95854.25;;;7.10;75.72
11971;BME280;6045;42.682;23.294;2022-12-18T07:17:25;95850.28;;;7.29;78.43
11971;BME280;6045;42.682;23.294;2022-12-18T07:19:52;95856.38;;;7.52;76.89
11971;BME280;6045;42.682;23.294;2022-12-18T07:22:20;95855.44;;;7.97;77.02
11971;BME280;6045;42.682;23.294;2022-12-18T07:24:47;95857.50;;;8.60;75.08
11971;BME280;6045;42.682;23.294;2022-12-18T07:27:14;95851.81;;;8.99;70.91
11971;BME280;6045;42.682;23.294;2022-12-18T07:29:41;95859.75;;;8.92;68.03
11971;BME280;6045;42.682;23.294;2022-12-18T07:32:07;95857.56;;;8.31;67.59
11971;BME280;6045;42.682;23.294;2022-12-18T07:34:34;95868.50;;;7.54;69.80
11971;BME280;6045;42.682;23.294;2022-12-18T07:37:01;95871.84;;;6.88;72.53
11971;BME280;6045;42.682;23.294;2022-12-18T07:39:29;95884.78;;;6.30;73.90
11971;BME280;6045;42.682;23.294;2022-12-18T07:41:56;95877.28;;;6.03;75.77
11971;BME280;6045;42.682;23.294;2022-12-18T07:44:40;95880.66;;;5.65;76.99
11971;BME280;6045;42.682;23.294;2022-12-18T07:47:07;95874.38;;;5.58;78.40
11971;BME280;6045;42.682;23.294;2022-12-18T07:49:33;95876.03;;;5.50;78.77
11971;BME280;6045;42.682;23.294;2022-12-18T07:52:02;95889.97;;;5.36;80.32
11971;BME280;6045;42.682;23.294;2022-12-18T07:54:30;95880.34;;;5.60;83.30
11971;BME280;6045;42.682;23.294;2022-12-18T07:56:56;95884.66;;;5.52;79.86
11971;BME280;6045;42.682;23.294;2022-12-18T07:59:23;95892.94;;;5.41;79.79
11971;BME280;6045;42.682;23.294;2022-12-18T08:01:50;95882.53;;;5.32;79.12
11971;BME280;6045;42.682;23.294;2022-12-18T08:04:17;95900.56;;;5.20;80.26
11971;BME280;6045;42.682;23.294;2022-12-18T08:06:44;95903.38;;;5.27;81.02
11971;BME280;6045;42.682;23.294;2022-12-18T08:09:11;95901.88;;;5.16;80.15
11971;BME280;6045;42.682;23.294;2022-12-18T08:11:39;95910.63;;;4.93;80.92
11971;BME280;6045;42.682;23.294;2022-12-18T08:14:06;95912.28;;;4.85;81.87
11971;BME280;6045;42.682;23.294;2022-12-18T08:16:32;95914.09;;;4.77;82.12
11971;BME280;6045;42.682;23.294;2022-12-18T08:18:59;95925.16;;;4.80;82.30
11971;BME280;6045;42.682;23.294;2022-12-18T08:21:28;95915.06;;;4.68;82.27
11971;BME280;6045;42.682;23.294;2022-12-18T08:23:58;95931.09;;;4.58;82.28
11971;BME280;6045;42.682;23.294;2022-12-18T08:26:26;95931.53;;;4.46;83.51
11971;BME280;6045;42.682;23.294;2022-12-18T08:28:56;95938.53;;;4.63;83.63
11971;BME280;6045;42.682;23.294;2022-12-18T08:31:23;95934.91;;;4.64;82.80
11971;BME280;6045;42.682;23.294;2022-12-18T08:33:55;95931.88;;;4.43;82.76
11971;BME280;6045;42.682;23.294;2022-12-18T08:36:48;95937.31;;;5.23;96.10
11971;BME280;6045;42.682;23.294;2022-12-18T08:39:22;95945.91;;;4.93;84.78
11971;BME280;6045;42.682;23.294;2022-12-18T08:42:08;95942.88;;;4.72;82.29
11971;BME280;6045;42.682;23.294;2022-12-18T08:45:08;95946.19;;;4.66;81.01
11971;BME280;6045;42.682;23.294;2022-12-18T08:47:40;95946.44;;;4.55;81.95
11971;BME280;6045;42.682;23.294;2022-12-18T08:50:09;95943.53;;;4.74;89.17
11971;BME280;6045;42.682;23.294;2022-12-18T08:53:02;95948.25;;;4.46;82.01
11971;BME280;6045;42.682;23.294;2022-12-18T08:59:02;95952.75;;;4.62;81.82
11971;BME280;6045;42.682;23.294;2022-12-18T09:01:37;95946.97;;;4.66;81.58
11971;BME280;6045;42.682;23.294;2022-12-18T09:04:47;95943.25;;;4.85;81.33
11971;BME280;6045;42.682;23.294;2022-12-18T09:07:20;95950.03;;;4.96;80.89
11971;BME280;6045;42.682;23.294;2022-12-18T09:10:05;95943.78;;;5.13;80.66
11971;BME280;6045;42.682;23.294;2022-12-18T09:12:32;95938.66;;;5.19;79.17
11971;BME280;6045;42.682;23.294;2022-12-18T09:18:28;95943.28;;;5.25;79.43
11971;BME280;6045;42.682;23.294;2022-12-18T09:21:00;95933.53;;;5.26;79.53
11971;BME280;6045;42.682;23.294;2022-12-18T09:24:43;95942.31;;;5.34;79.02
11971;BME280;6045;42.682;23.294;2022-12-18T09:27:27;95936.00;;;5.19;76.79
11971;BME280;6045;42.682;23.294;2022-12-18T09:29:54;95947.59;;;5.10;77.21
11971;BME280;6045;42.682;23.294;2022-12-18T09:32:56;95940.13;;;4.90;76.13
11971;BME280;6045;42.682;23.294;2022-12-18T09:35:34;95939.66;;;5.91;94.25
11971;BME280;6045;42.682;23.294;2022-12-18T09:38:23;95936.59;;;6.96;100.00
11971;BME280;6045;42.682;23.294;2022-12-18T09:44:35;95940.13;;;7.41;85.25
11971;BME280;6045;42.682;23.294;2022-12-18T09:47:24;95945.59;;;7.40;77.16
11971;BME280;6045;42.682;23.294;2022-12-18T09:50:35;95946.69;;;6.69;70.85
11971;BME280;6045;42.682;23.294;2022-12-18T09:53:30;95942.31;;;6.46;73.04
11971;BME280;6045;42.682;23.294;2022-12-18T09:56:12;95937.69;;;6.40;73.29
11971;BME280;6045;42.682;23.294;2022-12-18T09:58:55;95939.91;;;6.20;72.81
11971;BME280;6045;42.682;23.294;2022-12-18T10:01:37;95944.88;;;6.31;74.96
11971;BME280;6045;42.682;23.294;2022-12-18T10:11:25;95937.97;;;5.82;75.23
11971;BME280;6045;42.682;23.294;2022-12-18T10:13:57;95936.66;;;5.94;76.21
11971;BME280;6045;42.682;23.294;2022-12-18T10:16:33;95937.13;;;6.05;74.91
11971;BME280;6045;42.682;23.294;2022-12-18T10:19:10;95938.81;;;5.90;73.34
11971;BME280;6045;42.682;23.294;2022-12-18T10:21:45;95947.94;;;5.72;73.68
11971;BME280;6045;42.682;23.294;2022-12-18T10:24:20;95957.41;;;5.58;73.06
11971;BME280;6045;42.682;23.294;2022-12-18T10:26:52;95947.59;;;5.59;74.19
11971;BME280;6045;42.682;23.294;2022-12-18T10:29:19;95950.59;;;5.47;73.91
11971;BME280;6045;42.682;23.294;2022-12-18T10:31:46;95945.94;;;5.49;74.36
11971;BME280;6045;42.682;23.294;2022-12-18T10:34:14;95949.28;;;5.43;74.52
11971;BME280;6045;42.682;23.294;2022-12-18T10:36:42;95945.97;;;5.41;74.71
11971;BME280;6045;42.682;23.294;2022-12-18T10:39:16;95941.31;;;5.43;75.16
11971;BME280;6045;42.682;23.294;2022-12-18T10:41:43;95939.50;;;5.52;76.13
11971;BME280;6045;42.682;23.294;2022-12-18T10:44:16;95945.44;;;5.70;76.52
11971;BME280;6045;42.682;23.294;2022-12-18T10:46:44;95943.28;;;5.66;74.40
11971;BME280;6045;42.682;23.294;2022-12-18T10:49:21;95938.16;;;5.64;74.37
11971;BME280;6045;42.682;23.294;2022-12-18T10:51:49;95938.31;;;5.46;73.77
11971;BME280;6045;42.682;23.294;2022-12-18T10:54:19;95943.16;;;5.43;73.36
11971;BME280;6045;42.682;23.294;2022-12-18T10:56:47;95938.84;;;5.50;74.01
11971;BME280;6045;42.682;23.294;2022-12-18T10:59:24;95938.66;;;5.60;73.40
11971;BME280;6045;42.682;23.294;2022-12-18T11:01:57;95941.28;;;5.68;73.35
11971;BME280;6045;42.682;23.294;2022-12-18T11:04:28;95936.34;;;5.65;72.05
11971;BME280;6045;42.682;23.294;2022-12-18T11:10:16;95951.59;;;5.54;69.98
11971;BME280;6045;42.682;23.294;2022-12-18T11:12:43;95947.28;;;5.45;71.05
11971;BME280;6045;42.682;23.294;2022-12-18T11:15:16;95949.13;;;5.37;70.96
11971;BME280;6045;42.682;23.294;2022-12-18T11:17:47;95937.00;;;5.26;71.06
11971;BME280;6045;42.682;23.294;2022-12-18T11:20:30;95944.13;;;5.26;71.68
11971;BME280;6045;42.682;23.294;2022-12-18T11:22:59;95957.22;;;5.19;71.90
11971;BME280;6045;42.682;23.294;2022-12-18T11:25:28;95956.53;;;5.25;72.61
11971;BME280;6045;42.682;23.294;2022-12-18T11:27:56;95953.41;;;5.22;71.75
11971;BME280;6045;42.682;23.294;2022-12-18T11:30:27;95946.94;;;5.32;72.73
11971;BME280;6045;42.682;23.294;2022-12-18T11:33:04;95944.97;;;5.42;72.48
11971;BME280;6045;42.682;23.294;2022-12-18T11:35:45;95950.75;;;5.38;72.03
11971;BME280;6045;42.682;23.294;2022-12-18T11:38:20;95939.16;;;5.47;72.20
11971;BME280;6045;42.682;23.294;2022-12-18T11:40:53;95949.91;;;5.53;72.03
11971;BME280;6045;42.682;23.294;2022-12-18T11:43:26;95953.06;;;5.49;70.20
11971;BME280;6045;42.682;23.294;2022-12-18T11:45:59;95959.53;;;5.46;70.24
11971;BME280;6045;42.682;23.294;2022-12-18T11:48:30;95959.53;;;5.46;70.22
11971;BME280;6045;42.682;23.294;2022-12-18T11:51:02;95958.72;;;5.46;70.29
11971;BME280;6045;42.682;23.294;2022-12-18T11:53:30;95958.56;;;5.47;70.71
11971;BME280;6045;42.682;23.294;2022-12-18T11:56:26;95947.78;;;5.49;70.65
11971;BME280;6045;42.682;23.294;2022-12-18T11:59:08;95941.97;;;5.62;71.45
11971;BME280;6045;42.682;23.294;2022-12-18T12:01:49;95943.47;;;5.72;70.59
11971;BME280;6045;42.682;23.294;2022-12-18T12:07:35;95939.81;;;5.73;70.36
11971;BME280;6045;42.682;23.294;2022-12-18T12:10:14;95941.78;;;5.63;70.96
11971;BME280;6045;42.682;23.294;2022-12-18T12:12:55;95946.81;;;5.58;71.51
11971;BME280;6045;42.682;23.294;2022-12-18T12:15:33;95945.94;;;5.66;73.01
11971;BME280;6045;42.682;23.294;2022-12-18T12:18:12;95936.69;;;5.70;71.60
11971;BME280;6045;42.682;23.294;2022-12-18T12:20:49;95946.44;;;5.61;70.66
11971;BME280;6045;42.682;23.294;2022-12-18T12:23:26;95942.94;;;5.61;71.38
11971;BME280;6045;42.682;23.294;2022-12-18T12:25:58;95945.28;;;5.64;71.41
11971;BME280;6045;42.682;23.294;2022-12-18T12:29:49;95937.31;;;5.64;72.62
11971;BME280;6045;42.682;23.294;2022-12-18T12:32:16;95941.97;;;5.62;72.14
11971;BME280;6045;42.682;23.294;2022-12-18T12:34:56;95946.59;;;5.68;72.64
11971;BME280;6045;42.682;23.294;2022-12-18T12:37:35;95947.25;;;5.78;71.69
11971;BME280;6045;42.682;23.294;2022-12-18T12:40:06;95945.25;;;5.80;72.82
11971;BME280;6045;42.682;23.294;2022-12-18T12:42:36;95947.59;;;5.83;72.71
11971;BME280;6045;42.682;23.294;2022-12-18T12:45:25;95942.31;;;5.91;72.54
11971;BME280;6045;42.682;23.294;2022-12-18T12:47:57;95941.16;;;5.85;73.06
11971;BME280;6045;42.682;23.294;2022-12-18T12:50:27;95950.41;;;5.81;71.98
11971;BME280;6045;42.682;23.294;2022-12-18T12:52:55;95953.59;;;5.85;73.09
11971;BME280;6045;42.682;23.294;2022-12-18T12:55:25;95951.91;;;5.84;72.59
11971;BME280;6045;42.682;23.294;2022-12-18T12:57:59;95951.25;;;5.74;72.55
11971;BME280;6045;42.682;23.294;2022-12-18T13:00:31;95951.25;;;5.66;72.44
11971;BME280;6045;42.682;23.294;2022-12-18T13:03:08;95957.56;;;5.65;72.80
11971;BME280;6045;42.682;23.294;2022-12-18T13:05:45;95967.81;;;5.51;73.21
11971;BME280;6045;42.682;23.294;2022-12-18T13:08:23;95964.34;;;5.59;73.14
11971;BME280;6045;42.682;23.294;2022-12-18T13:10:52;95977.13;;;5.72;73.41
11971;BME280;6045;42.682;23.294;2022-12-18T13:13:48;95967.66;;;5.77;73.08
11971;BME280;6045;42.682;23.294;2022-12-18T13:16:18;95970.47;;;5.84;73.20
11971;BME280;6045;42.682;23.294;2022-12-18T13:18:49;95986.38;;;5.76;72.42
11971;BME280;6045;42.682;23.294;2022-12-18T13:21:21;95983.06;;;5.74;73.31
11971;BME280;6045;42.682;23.294;2022-12-18T13:23:53;95987.06;;;5.70;72.07
11971;BME280;6045;42.682;23.294;2022-12-18T13:26:33;95992.19;;;5.63;72.65
11971;BME280;6045;42.682;23.294;2022-12-18T13:29:03;95990.03;;;5.59;72.36
11971;BME280;6045;42.682;23.294;2022-12-18T13:34:37;95993.69;;;5.49;73.25
11971;BME280;6045;42.682;23.294;2022-12-18T13:43:37;95989.88;;;5.52;73.22
11971;BME280;6045;42.682;23.294;2022-12-18T13:46:24;95988.19;;;5.35;73.79
11971;BME280;6045;42.682;23.294;2022-12-18T13:49:22;96008.59;;;5.34;72.98
11971;BME280;6045;42.682;23.294;2022-12-18T13:51:53;96008.25;;;5.37;74.33
11971;BME280;6045;42.682;23.294;2022-12-18T13:54:29;96013.06;;;5.34;74.17
11971;BME280;6045;42.682;23.294;2022-12-18T13:57:01;96006.44;;;5.38;74.15
11971;BME280;6045;42.682;23.294;2022-12-18T13:59:35;96016.22;;;5.45;73.89
11971;BME280;6045;42.682;23.294;2022-12-18T14:02:12;96013.06;;;5.42;71.83
11971;BME280;6045;42.682;23.294;2022-12-18T14:04:39;96015.53;;;5.35;70.59
11971;BME280;6045;42.682;23.294;2022-12-18T14:07:07;96009.53;;;5.25;70.84
11971;BME280;6045;42.682;23.294;2022-12-18T14:09:40;96020.50;;;5.30;71.55
11971;BME280;6045;42.682;23.294;2022-12-18T14:12:14;96019.00;;;5.28;71.49
11971;BME280;6045;42.682;23.294;2022-12-18T14:15:02;96014.88;;;5.33;72.38